sensor_id;sensor_type;location;lat;lon;timestamp;temperature;humidity
68924;DHT22;55961;52.156;20.942;2023-07-13T00:00:46;20.80;73.90
68924;DHT22;55961;52.156;20.942;2023-07-13T00:03:33;20.80;74.20
68924;DHT22;55961;52.156;20.942;2023-07-13T00:06:01;20.70;74.20
68924;DHT22;55961;52.156;20.942;2023-07-13T00:08:32;20.70;73.90
68924;DHT22;55961;52.156;20.942;2023-07-13T00:10:59;20.70;74.10
68924;DHT22;55961;52.156;20.942;2023-07-13T00:13:25;20.70;74.10
68924;DHT22;55961;52.156;20.942;2023-07-13T00:15:51;20.70;74.00
68924;DHT22;55961;52.156;20.942;2023-07-13T00:18:20;20.70;74.00
68924;DHT22;55961;52.156;20.942;2023-07-13T00:20:46;20.70;74.20
68924;DHT22;55961;52.156;20.942;2023-07-13T00:23:12;20.70;74.10
68924;DHT22;55961;52.156;20.942;2023-07-13T00:25:38;20.70;74.30
68924;DHT22;55961;52.156;20.942;2023-07-13T00:28:04;20.70;74.20
68924;DHT22;55961;52.156;20.942;2023-07-13T00:30:30;20.60;74.30
68924;DHT22;55961;52.156;20.942;2023-07-13T00:32:56;20.60;74.30
68924;DHT22;55961;52.156;20.942;2023-07-13T00:35:21;20.50;74.60
68924;DHT22;55961;52.156;20.942;2023-07-13T00:37:47;20.50;74.60
68924;DHT22;55961;52.156;20.942;2023-07-13T00:40:14;20.50;74.80
68924;DHT22;55961;52.156;20.942;2023-07-13T00:42:41;20.50;75.10
68924;DHT22;55961;52.156;20.942;2023-07-13T00:47:54;20.50;75.40
68924;DHT22;55961;52.156;20.942;2023-07-13T00:50:21;20.50;75.30
68924;DHT22;55961;52.156;20.942;2023-07-13T00:52:52;20.50;75.50
68924;DHT22;55961;52.156;20.942;2023-07-13T00:55:21;20.50;75.60
68924;DHT22;55961;52.156;20.942;2023-07-13T00:57:47;20.50;75.70
68924;DHT22;55961;52.156;20.942;2023-07-13T01:00:14;20.50;75.70
68924;DHT22;55961;52.156;20.942;2023-07-13T01:02:42;20.50;75.80
68924;DHT22;55961;52.156;20.942;2023-07-13T01:05:15;20.50;75.70
68924;DHT22;55961;52.156;20.942;2023-07-13T01:07:42;20.50;75.70
68924;DHT22;55961;52.156;20.942;2023-07-13T01:10:10;20.40;75.70
68924;DHT22;55961;52.156;20.942;2023-07-13T01:12:37;20.40;75.80
68924;DHT22;55961;52.156;20.942;2023-07-13T01:15:03;20.40;76.00
68924;DHT22;55961;52.156;20.942;2023-07-13T01:17:31;20.40;76.00
68924;DHT22;55961;52.156;20.942;2023-07-13T01:19:58;20.40;75.80
68924;DHT22;55961;52.156;20.942;2023-07-13T01:22:26;20.40;75.70
68924;DHT22;55961;52.156;20.942;2023-07-13T01:24:53;20.40;75.70
68924;DHT22;55961;52.156;20.942;2023-07-13T01:27:25;20.30;75.70
68924;DHT22;55961;52.156;20.942;2023-07-13T01:29:52;20.30;75.70
68924;DHT22;55961;52.156;20.942;2023-07-13T01:32:21;20.30;75.90
68924;DHT22;55961;52.156;20.942;2023-07-13T01:34:51;20.30;75.90
68924;DHT22;55961;52.156;20.942;2023-07-13T01:37:20;20.30;76.10
68924;DHT22;55961;52.156;20.942;2023-07-13T01:39:47;20.30;76.20
68924;DHT22;55961;52.156;20.942;2023-07-13T01:42:13;20.20;76.40
68924;DHT22;55961;52.156;20.942;2023-07-13T01:44:58;20.20;76.50
68924;DHT22;55961;52.156;20.942;2023-07-13T01:47:24;20.20;76.50
68924;DHT22;55961;52.156;20.942;2023-07-13T01:49:51;20.20;76.60
68924;DHT22;55961;52.156;20.942;2023-07-13T01:52:17;20.20;76.70
68924;DHT22;55961;52.156;20.942;2023-07-13T01:54:43;20.20;76.50
68924;DHT22;55961;52.156;20.942;2023-07-13T01:57:09;20.20;76.50
68924;DHT22;55961;52.156;20.942;2023-07-13T01:59:35;20.20;76.30
68924;DHT22;55961;52.156;20.942;2023-07-13T02:02:01;20.20;76.70
68924;DHT22;55961;52.156;20.942;2023-07-13T02:04:27;20.20;76.70
68924;DHT22;55961;52.156;20.942;2023-07-13T02:06:53;20.20;76.70
68924;DHT22;55961;52.156;20.942;2023-07-13T02:09:21;20.20;76.80
68924;DHT22;55961;52.156;20.942;2023-07-13T02:11:47;20.20;76.90
68924;DHT22;55961;52.156;20.942;2023-07-13T02:14:14;20.20;76.80
68924;DHT22;55961;52.156;20.942;2023-07-13T02:16:41;20.20;76.80
68924;DHT22;55961;52.156;20.942;2023-07-13T02:19:08;20.20;76.80
68924;DHT22;55961;52.156;20.942;2023-07-13T02:21:34;20.20;76.80
68924;DHT22;55961;52.156;20.942;2023-07-13T02:24:00;20.30;76.70
68924;DHT22;55961;52.156;20.942;2023-07-13T02:26:27;20.20;76.70
68924;DHT22;55961;52.156;20.942;2023-07-13T02:28:53;20.20;76.80
68924;DHT22;55961;52.156;20.942;2023-07-13T02:31:20;20.20;76.70
68924;DHT22;55961;52.156;20.942;2023-07-13T02:33:46;20.30;76.50
68924;DHT22;55961;52.156;20.942;2023-07-13T02:36:12;20.20;76.30
68924;DHT22;55961;52.156;20.942;2023-07-13T02:38:42;20.20;76.30
68924;DHT22;55961;52.156;20.942;2023-07-13T02:41:09;20.20;76.50
68924;DHT22;55961;52.156;20.942;2023-07-13T02:43:36;20.20;76.30
68924;DHT22;55961;52.156;20.942;2023-07-13T02:46:03;20.20;76.40
68924;DHT22;55961;52.156;20.942;2023-07-13T02:48:35;20.20;76.60
68924;DHT22;55961;52.156;20.942;2023-07-13T02:51:01;20.20;76.60
68924;DHT22;55961;52.156;20.942;2023-07-13T02:53:27;20.20;76.60
68924;DHT22;55961;52.156;20.942;2023-07-13T02:55:53;20.20;77.00
68924;DHT22;55961;52.156;20.942;2023-07-13T02:58:19;20.30;77.20
68924;DHT22;55961;52.156;20.942;2023-07-13T03:00:46;20.30;77.20
68924;DHT22;55961;52.156;20.942;2023-07-13T03:03:13;20.30;76.90
68924;DHT22;55961;52.156;20.942;2023-07-13T03:05:42;20.40;76.80
68924;DHT22;55961;52.156;20.942;2023-07-13T03:08:08;20.40;76.60
68924;DHT22;55961;52.156;20.942;2023-07-13T03:10:35;20.40;76.30
68924;DHT22;55961;52.156;20.942;2023-07-13T03:13:01;20.40;76.10
68924;DHT22;55961;52.156;20.942;2023-07-13T03:15:27;20.40;76.10
68924;DHT22;55961;52.156;20.942;2023-07-13T03:17:53;20.40;76.10
68924;DHT22;55961;52.156;20.942;2023-07-13T03:20:19;20.40;76.00
68924;DHT22;55961;52.156;20.942;2023-07-13T03:22:45;20.40;76.00
68924;DHT22;55961;52.156;20.942;2023-07-13T03:25:11;20.40;76.00
68924;DHT22;55961;52.156;20.942;2023-07-13T03:27:38;20.40;76.00
68924;DHT22;55961;52.156;20.942;2023-07-13T03:30:05;20.40;76.10
68924;DHT22;55961;52.156;20.942;2023-07-13T03:32:31;20.40;76.10
68924;DHT22;55961;52.156;20.942;2023-07-13T03:34:57;20.40;76.00
68924;DHT22;55961;52.156;20.942;2023-07-13T03:37:23;20.40;76.00
68924;DHT22;55961;52.156;20.942;2023-07-13T03:39:50;20.40;75.80
68924;DHT22;55961;52.156;20.942;2023-07-13T03:42:16;20.40;75.80
68924;DHT22;55961;52.156;20.942;2023-07-13T03:44:42;20.40;75.90
68924;DHT22;55961;52.156;20.942;2023-07-13T03:47:11;20.40;76.10
68924;DHT22;55961;52.156;20.942;2023-07-13T03:49:37;20.40;76.00
68924;DHT22;55961;52.156;20.942;2023-07-13T03:52:04;20.30;76.00
68924;DHT22;55961;52.156;20.942;2023-07-13T03:54:30;20.30;76.10
68924;DHT22;55961;52.156;20.942;2023-07-13T03:56:56;20.30;76.50
68924;DHT22;55961;52.156;20.942;2023-07-13T03:59:22;20.20;76.80
68924;DHT22;55961;52.156;20.942;2023-07-13T04:01:48;20.20;77.00
68924;DHT22;55961;52.156;20.942;2023-07-13T04:04:14;20.30;77.10
68924;DHT22;55961;52.156;20.942;2023-07-13T04:06:41;20.30;77.30
68924;DHT22;55961;52.156;20.942;2023-07-13T04:09:08;20.30;77.40
68924;DHT22;55961;52.156;20.942;2023-07-13T04:11:35;20.30;77.30
68924;DHT22;55961;52.156;20.942;2023-07-13T04:14:02;20.30;77.40
68924;DHT22;55961;52.156;20.942;2023-07-13T04:16:28;20.40;77.60
68924;DHT22;55961;52.156;20.942;2023-07-13T04:18:55;20.50;77.70
68924;DHT22;55961;52.156;20.942;2023-07-13T04:21:26;20.50;77.60
68924;DHT22;55961;52.156;20.942;2023-07-13T04:23:53;20.60;77.80
68924;DHT22;55961;52.156;20.942;2023-07-13T04:26:19;20.70;77.60
68924;DHT22;55961;52.156;20.942;2023-07-13T04:29:08;20.80;77.60
68924;DHT22;55961;52.156;20.942;2023-07-13T04:31:35;20.90;77.30
68924;DHT22;55961;52.156;20.942;2023-07-13T04:34:01;21.00;77.00
68924;DHT22;55961;52.156;20.942;2023-07-13T04:36:28;21.00;76.70
68924;DHT22;55961;52.156;20.942;2023-07-13T04:38:54;21.10;76.70
68924;DHT22;55961;52.156;20.942;2023-07-13T04:41:21;21.20;76.90
68924;DHT22;55961;52.156;20.942;2023-07-13T04:43:47;21.30;76.90
68924;DHT22;55961;52.156;20.942;2023-07-13T04:46:15;21.30;76.70
68924;DHT22;55961;52.156;20.942;2023-07-13T04:48:43;21.40;76.60
68924;DHT22;55961;52.156;20.942;2023-07-13T04:51:09;21.40;76.70
68924;DHT22;55961;52.156;20.942;2023-07-13T04:53:41;21.50;76.70
68924;DHT22;55961;52.156;20.942;2023-07-13T04:56:08;21.60;76.90
68924;DHT22;55961;52.156;20.942;2023-07-13T04:58:36;21.70;76.90
68924;DHT22;55961;52.156;20.942;2023-07-13T05:01:04;21.70;77.00
68924;DHT22;55961;52.156;20.942;2023-07-13T05:03:30;21.80;76.50
68924;DHT22;55961;52.156;20.942;2023-07-13T05:06:08;21.80;76.30
68924;DHT22;55961;52.156;20.942;2023-07-13T05:08:37;21.80;76.40
68924;DHT22;55961;52.156;20.942;2023-07-13T05:11:04;21.90;75.90
68924;DHT22;55961;52.156;20.942;2023-07-13T05:13:30;21.90;75.50
68924;DHT22;55961;52.156;20.942;2023-07-13T05:15:58;21.80;75.60
68924;DHT22;55961;52.156;20.942;2023-07-13T05:18:25;21.80;75.60
68924;DHT22;55961;52.156;20.942;2023-07-13T05:21:03;21.80;75.80
68924;DHT22;55961;52.156;20.942;2023-07-13T05:23:30;21.80;75.90
68924;DHT22;55961;52.156;20.942;2023-07-13T05:25:57;21.80;75.70
68924;DHT22;55961;52.156;20.942;2023-07-13T05:28:24;21.80;75.90
68924;DHT22;55961;52.156;20.942;2023-07-13T05:30:50;21.90;76.00
68924;DHT22;55961;52.156;20.942;2023-07-13T05:33:17;21.90;76.20
68924;DHT22;55961;52.156;20.942;2023-07-13T05:35:43;21.90;76.40
68924;DHT22;55961;52.156;20.942;2023-07-13T05:38:09;22.00;76.60
68924;DHT22;55961;52.156;20.942;2023-07-13T05:40:34;22.00;76.80
68924;DHT22;55961;52.156;20.942;2023-07-13T05:43:01;22.10;76.90
68924;DHT22;55961;52.156;20.942;2023-07-13T05:45:26;22.20;76.50
68924;DHT22;55961;52.156;20.942;2023-07-13T05:47:52;22.20;76.20
68924;DHT22;55961;52.156;20.942;2023-07-13T05:50:18;22.30;76.40
68924;DHT22;55961;52.156;20.942;2023-07-13T05:52:44;22.50;76.00
68924;DHT22;55961;52.156;20.942;2023-07-13T05:55:10;22.60;75.70
68924;DHT22;55961;52.156;20.942;2023-07-13T05:57:36;22.70;75.30
68924;DHT22;55961;52.156;20.942;2023-07-13T06:00:03;22.80;75.00
68924;DHT22;55961;52.156;20.942;2023-07-13T06:02:29;22.90;74.40
68924;DHT22;55961;52.156;20.942;2023-07-13T06:04:55;23.00;74.00
68924;DHT22;55961;52.156;20.942;2023-07-13T06:07:21;23.10;73.80
68924;DHT22;55961;52.156;20.942;2023-07-13T06:09:46;23.20;73.90
68924;DHT22;55961;52.156;20.942;2023-07-13T06:12:13;23.30;73.90
68924;DHT22;55961;52.156;20.942;2023-07-13T06:14:38;23.40;73.70
68924;DHT22;55961;52.156;20.942;2023-07-13T06:17:05;23.50;72.30
68924;DHT22;55961;52.156;20.942;2023-07-13T06:19:31;23.50;72.30
68924;DHT22;55961;52.156;20.942;2023-07-13T06:21:57;23.60;71.90
68924;DHT22;55961;52.156;20.942;2023-07-13T06:24:24;23.60;72.00
68924;DHT22;55961;52.156;20.942;2023-07-13T06:26:51;23.70;72.00
68924;DHT22;55961;52.156;20.942;2023-07-13T06:29:17;23.80;71.90
68924;DHT22;55961;52.156;20.942;2023-07-13T06:31:43;23.90;71.70
68924;DHT22;55961;52.156;20.942;2023-07-13T06:34:08;24.00;71.40
68924;DHT22;55961;52.156;20.942;2023-07-13T06:36:35;24.00;69.80
68924;DHT22;55961;52.156;20.942;2023-07-13T06:39:02;24.10;69.20
68924;DHT22;55961;52.156;20.942;2023-07-13T06:41:28;24.20;69.00
68924;DHT22;55961;52.156;20.942;2023-07-13T06:43:56;24.30;68.10
68924;DHT22;55961;52.156;20.942;2023-07-13T06:46:22;24.30;67.80
68924;DHT22;55961;52.156;20.942;2023-07-13T06:48:48;24.40;67.60
68924;DHT22;55961;52.156;20.942;2023-07-13T06:51:15;24.50;66.60
68924;DHT22;55961;52.156;20.942;2023-07-13T06:53:40;24.60;65.90
68924;DHT22;55961;52.156;20.942;2023-07-13T06:56:08;24.70;66.60
68924;DHT22;55961;52.156;20.942;2023-07-13T06:58:34;24.90;66.50
68924;DHT22;55961;52.156;20.942;2023-07-13T07:01:00;25.00;64.80
68924;DHT22;55961;52.156;20.942;2023-07-13T07:03:26;25.20;63.40
68924;DHT22;55961;52.156;20.942;2023-07-13T07:05:52;25.20;63.10
68924;DHT22;55961;52.156;20.942;2023-07-13T07:08:19;25.30;62.80
68924;DHT22;55961;52.156;20.942;2023-07-13T07:10:45;25.40;61.90
68924;DHT22;55961;52.156;20.942;2023-07-13T07:13:11;25.50;62.00
68924;DHT22;55961;52.156;20.942;2023-07-13T07:15:37;25.60;61.60
68924;DHT22;55961;52.156;20.942;2023-07-13T07:18:03;25.80;60.90
68924;DHT22;55961;52.156;20.942;2023-07-13T07:20:29;25.90;59.20
68924;DHT22;55961;52.156;20.942;2023-07-13T07:22:56;26.00;56.90
68924;DHT22;55961;52.156;20.942;2023-07-13T07:25:22;26.10;56.30
68924;DHT22;55961;52.156;20.942;2023-07-13T07:27:48;26.20;56.50
68924;DHT22;55961;52.156;20.942;2023-07-13T07:30:14;26.30;57.20
68924;DHT22;55961;52.156;20.942;2023-07-13T07:32:40;26.30;55.00
68924;DHT22;55961;52.156;20.942;2023-07-13T07:35:07;26.40;52.70
68924;DHT22;55961;52.156;20.942;2023-07-13T07:37:33;26.40;52.40
68924;DHT22;55961;52.156;20.942;2023-07-13T07:39:59;26.50;53.00
68924;DHT22;55961;52.156;20.942;2023-07-13T07:42:25;26.70;53.10
68924;DHT22;55961;52.156;20.942;2023-07-13T07:44:51;26.80;53.50
68924;DHT22;55961;52.156;20.942;2023-07-13T07:47:17;26.90;52.60
68924;DHT22;55961;52.156;20.942;2023-07-13T07:49:43;27.00;52.00
68924;DHT22;55961;52.156;20.942;2023-07-13T07:52:09;27.20;50.80
68924;DHT22;55961;52.156;20.942;2023-07-13T07:54:35;27.30;50.10
68924;DHT22;55961;52.156;20.942;2023-07-13T07:57:01;27.40;49.40
68924;DHT22;55961;52.156;20.942;2023-07-13T07:59:27;27.60;49.70
68924;DHT22;55961;52.156;20.942;2023-07-13T08:01:53;27.70;48.30
68924;DHT22;55961;52.156;20.942;2023-07-13T08:04:19;27.80;48.90
68924;DHT22;55961;52.156;20.942;2023-07-13T08:06:45;27.80;49.00
68924;DHT22;55961;52.156;20.942;2023-07-13T08:09:11;27.80;49.60
68924;DHT22;55961;52.156;20.942;2023-07-13T08:11:37;27.90;49.90
68924;DHT22;55961;52.156;20.942;2023-07-13T08:14:03;28.00;50.30
68924;DHT22;55961;52.156;20.942;2023-07-13T08:16:29;28.20;49.40
68924;DHT22;55961;52.156;20.942;2023-07-13T08:18:55;28.20;49.60
68924;DHT22;55961;52.156;20.942;2023-07-13T08:21:21;28.20;49.50
68924;DHT22;55961;52.156;20.942;2023-07-13T08:23:47;28.30;49.30
68924;DHT22;55961;52.156;20.942;2023-07-13T08:26:13;28.50;48.90
68924;DHT22;55961;52.156;20.942;2023-07-13T08:28:41;28.60;49.00
68924;DHT22;55961;52.156;20.942;2023-07-13T08:31:07;28.60;49.00
68924;DHT22;55961;52.156;20.942;2023-07-13T08:33:35;28.70;49.00
68924;DHT22;55961;52.156;20.942;2023-07-13T08:36:01;28.70;49.20
68924;DHT22;55961;52.156;20.942;2023-07-13T08:38:27;28.70;49.00
68924;DHT22;55961;52.156;20.942;2023-07-13T08:40:55;28.70;50.30
68924;DHT22;55961;52.156;20.942;2023-07-13T08:43:41;28.70;50.90
68924;DHT22;55961;52.156;20.942;2023-07-13T08:46:34;28.80;51.40
68924;DHT22;55961;52.156;20.942;2023-07-13T08:49:09;29.00;51.10
68924;DHT22;55961;52.156;20.942;2023-07-13T08:51:44;29.10;51.40
68924;DHT22;55961;52.156;20.942;2023-07-13T08:56:45;29.20;50.40
68924;DHT22;55961;52.156;20.942;2023-07-13T08:59:18;29.20;49.90
68924;DHT22;55961;52.156;20.942;2023-07-13T09:04:26;29.10;50.60
68924;DHT22;55961;52.156;20.942;2023-07-13T09:07:09;29.20;50.40
68924;DHT22;55961;52.156;20.942;2023-07-13T09:15:05;29.70;50.50
68924;DHT22;55961;52.156;20.942;2023-07-13T09:17:49;29.90;49.90
68924;DHT22;55961;52.156;20.942;2023-07-13T09:20:37;30.10;49.70
68924;DHT22;55961;52.156;20.942;2023-07-13T09:23:10;30.40;48.40
68924;DHT22;55961;52.156;20.942;2023-07-13T09:25:38;30.40;48.40
68924;DHT22;55961;52.156;20.942;2023-07-13T09:28:15;30.50;47.90
68924;DHT22;55961;52.156;20.942;2023-07-13T09:31:57;30.60;48.00
68924;DHT22;55961;52.156;20.942;2023-07-13T09:33:51;30.70;48.20
68924;DHT22;55961;52.156;20.942;2023-07-13T09:36:27;30.80;48.30
68924;DHT22;55961;52.156;20.942;2023-07-13T09:44:29;31.10;47.00
68924;DHT22;55961;52.156;20.942;2023-07-13T09:46:57;31.10;47.20
68924;DHT22;55961;52.156;20.942;2023-07-13T09:49:28;31.20;46.90
68924;DHT22;55961;52.156;20.942;2023-07-13T09:52:00;31.30;46.80
68924;DHT22;55961;52.156;20.942;2023-07-13T09:54:26;31.40;46.40
68924;DHT22;55961;52.156;20.942;2023-07-13T09:56:57;31.60;46.60
68924;DHT22;55961;52.156;20.942;2023-07-13T09:59:27;31.60;45.70
68924;DHT22;55961;52.156;20.942;2023-07-13T10:01:54;31.70;45.30
68924;DHT22;55961;52.156;20.942;2023-07-13T10:04:33;31.70;46.00
68924;DHT22;55961;52.156;20.942;2023-07-13T10:07:07;31.80;45.50
68924;DHT22;55961;52.156;20.942;2023-07-13T10:09:34;31.80;44.30
68924;DHT22;55961;52.156;20.942;2023-07-13T10:12:00;31.70;42.60
68924;DHT22;55961;52.156;20.942;2023-07-13T10:14:27;31.60;42.90
68924;DHT22;55961;52.156;20.942;2023-07-13T10:17:01;31.60;42.70
68924;DHT22;55961;52.156;20.942;2023-07-13T10:19:32;31.40;42.50
68924;DHT22;55961;52.156;20.942;2023-07-13T10:22:02;31.20;42.50
68924;DHT22;55961;52.156;20.942;2023-07-13T10:24:32;31.00;42.40
68924;DHT22;55961;52.156;20.942;2023-07-13T10:29:36;30.50;42.80
68924;DHT22;55961;52.156;20.942;2023-07-13T10:32:09;30.20;43.20
68924;DHT22;55961;52.156;20.942;2023-07-13T10:34:37;30.00;43.90
68924;DHT22;55961;52.156;20.942;2023-07-13T10:37:05;29.80;44.40
68924;DHT22;55961;52.156;20.942;2023-07-13T10:39:32;29.60;44.60
68924;DHT22;55961;52.156;20.942;2023-07-13T10:42:03;29.40;44.70
68924;DHT22;55961;52.156;20.942;2023-07-13T10:44:32;29.20;45.00
68924;DHT22;55961;52.156;20.942;2023-07-13T10:47:04;29.00;45.00
68924;DHT22;55961;52.156;20.942;2023-07-13T10:49:33;28.90;45.40
68924;DHT22;55961;52.156;20.942;2023-07-13T10:52:01;28.70;45.90
68924;DHT22;55961;52.156;20.942;2023-07-13T10:54:32;28.50;49.10
68924;DHT22;55961;52.156;20.942;2023-07-13T10:57:18;28.20;53.60
68924;DHT22;55961;52.156;20.942;2023-07-13T11:02:28;27.40;57.60
68924;DHT22;55961;52.156;20.942;2023-07-13T11:04:56;26.90;58.30
68924;DHT22;55961;52.156;20.942;2023-07-13T11:07:30;26.50;59.50
68924;DHT22;55961;52.156;20.942;2023-07-13T11:09:59;26.10;59.70
68924;DHT22;55961;52.156;20.942;2023-07-13T11:12:29;25.80;61.10
68924;DHT22;55961;52.156;20.942;2023-07-13T11:15:13;25.50;62.80
68924;DHT22;55961;52.156;20.942;2023-07-13T11:17:51;25.20;62.70
68924;DHT22;55961;52.156;20.942;2023-07-13T11:20:35;25.00;62.70
68924;DHT22;55961;52.156;20.942;2023-07-13T11:23:18;24.80;62.70
68924;DHT22;55961;52.156;20.942;2023-07-13T11:25:45;24.60;63.40
68924;DHT22;55961;52.156;20.942;2023-07-13T11:28:14;24.40;63.90
68924;DHT22;55961;52.156;20.942;2023-07-13T11:36:19;24.00;66.80
68924;DHT22;55961;52.156;20.942;2023-07-13T11:39:21;23.90;67.50
68924;DHT22;55961;52.156;20.942;2023-07-13T11:41:57;23.80;68.00
68924;DHT22;55961;52.156;20.942;2023-07-13T11:44:26;23.70;68.30
68924;DHT22;55961;52.156;20.942;2023-07-13T11:46:57;23.60;68.70
68924;DHT22;55961;52.156;20.942;2023-07-13T11:49:30;23.60;69.50
68924;DHT22;55961;52.156;20.942;2023-07-13T11:51:57;23.50;70.90
68924;DHT22;55961;52.156;20.942;2023-07-13T11:54:32;23.40;71.20
68924;DHT22;55961;52.156;20.942;2023-07-13T11:57:13;23.40;71.70
68924;DHT22;55961;52.156;20.942;2023-07-13T11:59:44;23.30;70.30
68924;DHT22;55961;52.156;20.942;2023-07-13T12:02:22;23.30;70.10
68924;DHT22;55961;52.156;20.942;2023-07-13T12:04:51;23.10;70.00
68924;DHT22;55961;52.156;20.942;2023-07-13T12:07:19;23.10;69.40
68924;DHT22;55961;52.156;20.942;2023-07-13T12:09:45;23.00;69.70
68924;DHT22;55961;52.156;20.942;2023-07-13T12:12:13;23.00;70.00
68924;DHT22;55961;52.156;20.942;2023-07-13T12:14:39;23.00;69.80
68924;DHT22;55961;52.156;20.942;2023-07-13T12:17:24;22.90;69.70
68924;DHT22;55961;52.156;20.942;2023-07-13T12:19:52;22.90;69.40
68924;DHT22;55961;52.156;20.942;2023-07-13T12:22:19;22.90;68.30
68924;DHT22;55961;52.156;20.942;2023-07-13T12:24:47;22.90;67.90
68924;DHT22;55961;52.156;20.942;2023-07-13T12:27:30;22.90;68.20
68924;DHT22;55961;52.156;20.942;2023-07-13T12:30:05;22.90;68.90
68924;DHT22;55961;52.156;20.942;2023-07-13T12:32:31;22.90;68.90
68924;DHT22;55961;52.156;20.942;2023-07-13T12:35:14;22.90;69.10
68924;DHT22;55961;52.156;20.942;2023-07-13T12:37:45;22.90;69.50
68924;DHT22;55961;52.156;20.942;2023-07-13T12:40:20;22.90;69.90
68924;DHT22;55961;52.156;20.942;2023-07-13T12:42:48;22.90;69.90
68924;DHT22;55961;52.156;20.942;2023-07-13T12:47:49;22.90;68.30
68924;DHT22;55961;52.156;20.942;2023-07-13T12:50:18;22.90;68.20
68924;DHT22;55961;52.156;20.942;2023-07-13T12:52:54;22.90;68.20
68924;DHT22;55961;52.156;20.942;2023-07-13T12:55:21;22.80;67.70
68924;DHT22;55961;52.156;20.942;2023-07-13T12:57:56;22.80;67.90
68924;DHT22;55961;52.156;20.942;2023-07-13T13:00:30;22.80;67.90
68924;DHT22;55961;52.156;20.942;2023-07-13T13:03:06;22.80;68.80
68924;DHT22;55961;52.156;20.942;2023-07-13T13:05:33;22.80;69.80
68924;DHT22;55961;52.156;20.942;2023-07-13T13:07:59;22.80;70.20
68924;DHT22;55961;52.156;20.942;2023-07-13T13:10:26;22.90;71.30
68924;DHT22;55961;52.156;20.942;2023-07-13T13:12:52;22.90;71.00
68924;DHT22;55961;52.156;20.942;2023-07-13T13:15:18;23.00;70.70
68924;DHT22;55961;52.156;20.942;2023-07-13T13:17:44;22.90;70.30
68924;DHT22;55961;52.156;20.942;2023-07-13T13:20:18;23.00;70.50
68924;DHT22;55961;52.156;20.942;2023-07-13T13:22:44;22.90;69.50
68924;DHT22;55961;52.156;20.942;2023-07-13T13:25:11;22.90;69.00
68924;DHT22;55961;52.156;20.942;2023-07-13T13:27:37;22.90;68.60
68924;DHT22;55961;52.156;20.942;2023-07-13T13:30:17;22.90;68.40
68924;DHT22;55961;52.156;20.942;2023-07-13T13:32:45;22.90;68.50
68924;DHT22;55961;52.156;20.942;2023-07-13T13:35:15;22.90;69.00
68924;DHT22;55961;52.156;20.942;2023-07-13T13:37:42;22.90;69.40
68924;DHT22;55961;52.156;20.942;2023-07-13T13:40:14;22.90;70.00
68924;DHT22;55961;52.156;20.942;2023-07-13T13:42:41;22.90;70.80
68924;DHT22;55961;52.156;20.942;2023-07-13T13:45:09;22.90;71.20
68924;DHT22;55961;52.156;20.942;2023-07-13T13:47:36;22.90;71.60
68924;DHT22;55961;52.156;20.942;2023-07-13T13:50:15;22.90;71.50
68924;DHT22;55961;52.156;20.942;2023-07-13T13:52:42;22.90;71.20
68924;DHT22;55961;52.156;20.942;2023-07-13T13:55:16;22.90;72.10
68924;DHT22;55961;52.156;20.942;2023-07-13T13:57:43;22.80;72.10
68924;DHT22;55961;52.156;20.942;2023-07-13T14:00:10;22.80;72.60
68924;DHT22;55961;52.156;20.942;2023-07-13T14:02:41;22.80;72.70
68924;DHT22;55961;52.156;20.942;2023-07-13T14:05:14;22.90;72.60
68924;DHT22;55961;52.156;20.942;2023-07-13T14:07:41;22.80;72.20
68924;DHT22;55961;52.156;20.942;2023-07-13T14:10:17;22.80;72.50
68924;DHT22;55961;52.156;20.942;2023-07-13T14:12:52;22.70;72.60
68924;DHT22;55961;52.156;20.942;2023-07-13T14:15:25;22.70;72.80
68924;DHT22;55961;52.156;20.942;2023-07-13T14:17:51;22.70;73.20
68924;DHT22;55961;52.156;20.942;2023-07-13T14:20:19;22.70;73.40
68924;DHT22;55961;52.156;20.942;2023-07-13T14:22:47;22.70;73.80
68924;DHT22;55961;52.156;20.942;2023-07-13T14:25:16;22.70;73.70
68924;DHT22;55961;52.156;20.942;2023-07-13T14:27:43;22.60;73.90
68924;DHT22;55961;52.156;20.942;2023-07-13T14:30:18;22.70;73.40
68924;DHT22;55961;52.156;20.942;2023-07-13T14:32:45;22.70;73.70
68924;DHT22;55961;52.156;20.942;2023-07-13T14:35:15;22.70;74.20
68924;DHT22;55961;52.156;20.942;2023-07-13T14:37:42;22.70;73.70
68924;DHT22;55961;52.156;20.942;2023-07-13T14:40:19;22.80;73.90
68924;DHT22;55961;52.156;20.942;2023-07-13T14:42:47;22.80;73.40
68924;DHT22;55961;52.156;20.942;2023-07-13T14:45:18;22.90;72.20
68924;DHT22;55961;52.156;20.942;2023-07-13T14:47:44;22.80;72.10
68924;DHT22;55961;52.156;20.942;2023-07-13T14:50:14;22.80;72.00
68924;DHT22;55961;52.156;20.942;2023-07-13T14:52:42;22.80;71.80
68924;DHT22;55961;52.156;20.942;2023-07-13T14:55:12;22.80;72.40
68924;DHT22;55961;52.156;20.942;2023-07-13T14:57:38;22.70;72.70
68924;DHT22;55961;52.156;20.942;2023-07-13T15:00:12;22.70;73.00
68924;DHT22;55961;52.156;20.942;2023-07-13T15:02:39;22.60;73.40
68924;DHT22;55961;52.156;20.942;2023-07-13T15:05:17;22.60;73.30
68924;DHT22;55961;52.156;20.942;2023-07-13T15:07:44;22.50;73.10
68924;DHT22;55961;52.156;20.942;2023-07-13T15:12:47;22.40;71.90
68924;DHT22;55961;52.156;20.942;2023-07-13T15:15:13;22.40;72.30
68924;DHT22;55961;52.156;20.942;2023-07-13T15:17:45;22.30;72.90
68924;DHT22;55961;52.156;20.942;2023-07-13T15:20:31;22.20;73.20
68924;DHT22;55961;52.156;20.942;2023-07-13T15:22:58;22.10;73.20
68924;DHT22;55961;52.156;20.942;2023-07-13T15:25:27;22.10;73.90
68924;DHT22;55961;52.156;20.942;2023-07-13T15:27:54;22.00;74.50
68924;DHT22;55961;52.156;20.942;2023-07-13T15:30:21;22.00;75.00
68924;DHT22;55961;52.156;20.942;2023-07-13T15:32:48;21.90;75.10
68924;DHT22;55961;52.156;20.942;2023-07-13T15:35:16;21.90;75.00
68924;DHT22;55961;52.156;20.942;2023-07-13T15:37:43;21.90;74.60
68924;DHT22;55961;52.156;20.942;2023-07-13T15:40:10;21.90;74.80
68924;DHT22;55961;52.156;20.942;2023-07-13T15:42:37;21.90;74.80
68924;DHT22;55961;52.156;20.942;2023-07-13T15:45:09;22.00;74.60
68924;DHT22;55961;52.156;20.942;2023-07-13T15:47:39;21.90;74.50
68924;DHT22;55961;52.156;20.942;2023-07-13T15:50:08;21.90;75.00
68924;DHT22;55961;52.156;20.942;2023-07-13T15:52:37;21.90;75.10
68924;DHT22;55961;52.156;20.942;2023-07-13T15:55:03;21.90;75.30
68924;DHT22;55961;52.156;20.942;2023-07-13T15:57:29;21.90;75.50
68924;DHT22;55961;52.156;20.942;2023-07-13T15:59:55;22.00;75.50